sensor_id;sensor_type;location;lat;lon;timestamp;P1;durP1;ratioP1;P2;durP2;ratioP2
12218;SDS011;6172;42.646;23.344;2022-07-23T00:00:19;5.68;;;4.88;;
12218;SDS011;6172;42.646;23.344;2022-07-23T00:02:46;10.02;;;4.50;;
12218;SDS011;6172;42.646;23.344;2022-07-23T00:05:13;8.80;;;5.03;;
12218;SDS011;6172;42.646;23.344;2022-07-23T00:07:40;12.27;;;4.88;;
12218;SDS011;6172;42.646;23.344;2022-07-23T00:10:08;12.20;;;4.68;;
12218;SDS011;6172;42.646;23.344;2022-07-23T00:12:36;7.85;;;5.00;;
12218;SDS011;6172;42.646;23.344;2022-07-23T00:15:04;9.63;;;5.10;;
12218;SDS011;6172;42.646;23.344;2022-07-23T00:17:31;8.82;;;5.43;;
12218;SDS011;6172;42.646;23.344;2022-07-23T00:19:58;9.07;;;5.00;;
12218;SDS011;6172;42.646;23.344;2022-07-23T00:22:25;7.53;;;4.72;;
12218;SDS011;6172;42.646;23.344;2022-07-23T00:24:54;10.50;;;4.82;;
12218;SDS011;6172;42.646;23.344;2022-07-23T00:27:21;8.00;;;4.90;;
12218;SDS011;6172;42.646;23.344;2022-07-23T00:29:49;6.80;;;4.53;;
12218;SDS011;6172;42.646;23.344;2022-07-23T00:32:16;8.45;;;4.97;;
12218;SDS011;6172;42.646;23.344;2022-07-23T00:34:43;8.80;;;4.97;;
12218;SDS011;6172;42.646;23.344;2022-07-23T00:37:10;6.82;;;4.80;;
12218;SDS011;6172;42.646;23.344;2022-07-23T00:39:37;9.60;;;5.03;;
12218;SDS011;6172;42.646;23.344;2022-07-23T00:42:04;9.75;;;5.10;;
12218;SDS011;6172;42.646;23.344;2022-07-23T00:44:31;10.73;;;4.50;;
12218;SDS011;6172;42.646;23.344;2022-07-23T00:46:59;8.70;;;4.43;;
12218;SDS011;6172;42.646;23.344;2022-07-23T00:49:28;7.63;;;4.60;;
12218;SDS011;6172;42.646;23.344;2022-07-23T00:51:56;7.75;;;4.60;;
12218;SDS011;6172;42.646;23.344;2022-07-23T00:54:25;7.57;;;4.38;;
12218;SDS011;6172;42.646;23.344;2022-07-23T00:56:53;8.00;;;4.18;;
12218;SDS011;6172;42.646;23.344;2022-07-23T00:59:20;7.22;;;4.80;;
12218;SDS011;6172;42.646;23.344;2022-07-23T01:01:47;5.38;;;4.55;;
12218;SDS011;6172;42.646;23.344;2022-07-23T01:04:16;6.40;;;4.40;;
12218;SDS011;6172;42.646;23.344;2022-07-23T01:06:43;7.13;;;4.47;;
12218;SDS011;6172;42.646;23.344;2022-07-23T01:09:11;9.15;;;4.40;;
12218;SDS011;6172;42.646;23.344;2022-07-23T01:11:38;5.93;;;4.25;;
12218;SDS011;6172;42.646;23.344;2022-07-23T01:14:08;4.55;;;4.15;;
12218;SDS011;6172;42.646;23.344;2022-07-23T01:16:39;7.45;;;4.45;;
12218;SDS011;6172;42.646;23.344;2022-07-23T01:19:06;4.40;;;3.97;;
12218;SDS011;6172;42.646;23.344;2022-07-23T01:21:37;6.10;;;4.40;;
12218;SDS011;6172;42.646;23.344;2022-07-23T01:24:08;6.60;;;4.78;;
12218;SDS011;6172;42.646;23.344;2022-07-23T01:26:36;5.38;;;4.07;;
12218;SDS011;6172;42.646;23.344;2022-07-23T01:29:03;8.93;;;4.50;;
12218;SDS011;6172;42.646;23.344;2022-07-23T01:31:31;5.53;;;4.57;;
12218;SDS011;6172;42.646;23.344;2022-07-23T01:33:58;7.47;;;4.60;;
12218;SDS011;6172;42.646;23.344;2022-07-23T01:36:25;6.13;;;4.70;;
12218;SDS011;6172;42.646;23.344;2022-07-23T01:38:52;5.78;;;4.22;;
12218;SDS011;6172;42.646;23.344;2022-07-23T01:41:20;6.30;;;5.00;;
12218;SDS011;6172;42.646;23.344;2022-07-23T01:43:48;6.38;;;4.40;;
12218;SDS011;6172;42.646;23.344;2022-07-23T01:46:15;5.43;;;4.30;;
12218;SDS011;6172;42.646;23.344;2022-07-23T01:48:41;9.30;;;4.97;;
12218;SDS011;6172;42.646;23.344;2022-07-23T01:51:08;8.73;;;5.10;;
12218;SDS011;6172;42.646;23.344;2022-07-23T01:53:35;9.57;;;4.57;;
12218;SDS011;6172;42.646;23.344;2022-07-23T01:56:02;8.20;;;4.80;;
12218;SDS011;6172;42.646;23.344;2022-07-23T01:58:31;13.27;;;5.00;;
12218;SDS011;6172;42.646;23.344;2022-07-23T02:00:58;7.78;;;4.40;;
12218;SDS011;6172;42.646;23.344;2022-07-23T02:03:25;8.95;;;4.80;;
12218;SDS011;6172;42.646;23.344;2022-07-23T02:05:52;10.25;;;4.65;;
12218;SDS011;6172;42.646;23.344;2022-07-23T02:08:19;5.25;;;4.68;;
12218;SDS011;6172;42.646;23.344;2022-07-23T02:10:46;8.30;;;5.13;;
12218;SDS011;6172;42.646;23.344;2022-07-23T02:13:13;9.88;;;4.15;;
12218;SDS011;6172;42.646;23.344;2022-07-23T02:15:42;7.15;;;4.90;;
12218;SDS011;6172;42.646;23.344;2022-07-23T02:18:09;6.88;;;4.85;;
12218;SDS011;6172;42.646;23.344;2022-07-23T02:20:36;8.85;;;5.07;;
12218;SDS011;6172;42.646;23.344;2022-07-23T02:23:04;8.25;;;4.93;;
12218;SDS011;6172;42.646;23.344;2022-07-23T02:25:31;10.18;;;4.82;;
12218;SDS011;6172;42.646;23.344;2022-07-23T02:27:58;9.88;;;5.90;;
12218;SDS011;6172;42.646;23.344;2022-07-23T02:30:25;7.00;;;4.82;;
12218;SDS011;6172;42.646;23.344;2022-07-23T02:32:54;8.80;;;5.38;;
12218;SDS011;6172;42.646;23.344;2022-07-23T02:35:21;8.02;;;4.80;;
12218;SDS011;6172;42.646;23.344;2022-07-23T02:37:48;11.70;;;5.55;;
12218;SDS011;6172;42.646;23.344;2022-07-23T02:40:14;8.93;;;5.13;;
12218;SDS011;6172;42.646;23.344;2022-07-23T02:42:41;7.82;;;5.18;;
12218;SDS011;6172;42.646;23.344;2022-07-23T02:45:08;10.13;;;5.35;;
12218;SDS011;6172;42.646;23.344;2022-07-23T02:47:35;6.32;;;4.60;;
12218;SDS011;6172;42.646;23.344;2022-07-23T02:50:04;7.97;;;4.97;;
12218;SDS011;6172;42.646;23.344;2022-07-23T02:52:32;6.53;;;5.00;;
12218;SDS011;6172;42.646;23.344;2022-07-23T02:54:59;10.27;;;5.57;;
12218;SDS011;6172;42.646;23.344;2022-07-23T02:57:25;13.82;;;6.28;;
12218;SDS011;6172;42.646;23.344;2022-07-23T02:59:52;11.18;;;5.22;;
12218;SDS011;6172;42.646;23.344;2022-07-23T03:02:19;9.55;;;5.55;;
12218;SDS011;6172;42.646;23.344;2022-07-23T03:04:46;8.70;;;5.22;;
12218;SDS011;6172;42.646;23.344;2022-07-23T03:07:15;12.50;;;5.53;;
12218;SDS011;6172;42.646;23.344;2022-07-23T03:09:42;7.15;;;5.45;;
12218;SDS011;6172;42.646;23.344;2022-07-23T03:12:09;11.85;;;5.07;;
12218;SDS011;6172;42.646;23.344;2022-07-23T03:14:36;11.07;;;5.35;;
12218;SDS011;6172;42.646;23.344;2022-07-23T03:17:03;7.07;;;5.03;;
12218;SDS011;6172;42.646;23.344;2022-07-23T03:19:30;7.95;;;4.78;;
12218;SDS011;6172;42.646;23.344;2022-07-23T03:21:57;9.50;;;4.97;;
12218;SDS011;6172;42.646;23.344;2022-07-23T03:24:25;9.60;;;4.53;;
12218;SDS011;6172;42.646;23.344;2022-07-23T03:27:12;8.30;;;4.50;;
12218;SDS011;6172;42.646;23.344;2022-07-23T03:29:39;9.68;;;5.15;;
12218;SDS011;6172;42.646;23.344;2022-07-23T03:32:06;13.73;;;5.30;;
12218;SDS011;6172;42.646;23.344;2022-07-23T03:34:33;10.18;;;5.20;;
12218;SDS011;6172;42.646;23.344;2022-07-23T03:37:00;10.68;;;5.57;;
12218;SDS011;6172;42.646;23.344;2022-07-23T03:39:28;8.40;;;5.38;;
12218;SDS011;6172;42.646;23.344;2022-07-23T03:41:55;13.50;;;5.70;;
12218;SDS011;6172;42.646;23.344;2022-07-23T03:44:22;10.25;;;5.97;;
12218;SDS011;6172;42.646;23.344;2022-07-23T03:46:49;11.60;;;5.40;;
12218;SDS011;6172;42.646;23.344;2022-07-23T03:49:17;10.57;;;5.65;;
12218;SDS011;6172;42.646;23.344;2022-07-23T03:51:43;10.32;;;5.60;;
12218;SDS011;6172;42.646;23.344;2022-07-23T03:54:10;12.20;;;5.75;;
12218;SDS011;6172;42.646;23.344;2022-07-23T03:56:39;13.23;;;5.88;;
12218;SDS011;6172;42.646;23.344;2022-07-23T03:59:05;12.98;;;5.53;;
12218;SDS011;6172;42.646;23.344;2022-07-23T04:01:32;9.80;;;5.30;;
12218;SDS011;6172;42.646;23.344;2022-07-23T04:03:59;11.00;;;5.25;;
12218;SDS011;6172;42.646;23.344;2022-07-23T04:06:26;9.27;;;5.07;;
12218;SDS011;6172;42.646;23.344;2022-07-23T04:08:53;8.13;;;4.88;;
12218;SDS011;6172;42.646;23.344;2022-07-23T04:11:20;9.88;;;4.68;;
12218;SDS011;6172;42.646;23.344;2022-07-23T04:13:48;8.95;;;4.85;;
12218;SDS011;6172;42.646;23.344;2022-07-23T04:16:15;10.00;;;4.68;;
12218;SDS011;6172;42.646;23.344;2022-07-23T04:18:42;8.30;;;5.35;;
12218;SDS011;6172;42.646;23.344;2022-07-23T04:21:09;8.98;;;4.70;;
12218;SDS011;6172;42.646;23.344;2022-07-23T04:23:39;12.85;;;5.50;;
12218;SDS011;6172;42.646;23.344;2022-07-23T04:26:05;16.90;;;5.30;;
12218;SDS011;6172;42.646;23.344;2022-07-23T04:28:32;11.90;;;6.07;;
12218;SDS011;6172;42.646;23.344;2022-07-23T04:31:00;15.18;;;6.63;;
12218;SDS011;6172;42.646;23.344;2022-07-23T04:33:27;14.00;;;6.20;;
12218;SDS011;6172;42.646;23.344;2022-07-23T04:35:54;12.23;;;7.03;;
12218;SDS011;6172;42.646;23.344;2022-07-23T04:38:21;8.90;;;6.40;;
12218;SDS011;6172;42.646;23.344;2022-07-23T04:40:48;13.43;;;7.10;;
12218;SDS011;6172;42.646;23.344;2022-07-23T04:43:15;9.65;;;6.97;;
12218;SDS011;6172;42.646;23.344;2022-07-23T04:45:42;11.27;;;7.57;;
12218;SDS011;6172;42.646;23.344;2022-07-23T04:48:10;8.88;;;7.20;;
12218;SDS011;6172;42.646;23.344;2022-07-23T04:50:37;13.27;;;7.00;;
12218;SDS011;6172;42.646;23.344;2022-07-23T04:53:04;9.75;;;7.00;;
12218;SDS011;6172;42.646;23.344;2022-07-23T04:55:31;10.82;;;7.70;;
12218;SDS011;6172;42.646;23.344;2022-07-23T04:57:57;11.02;;;7.82;;
12218;SDS011;6172;42.646;23.344;2022-07-23T05:00:24;11.68;;;7.18;;
12218;SDS011;6172;42.646;23.344;2022-07-23T05:02:51;19.15;;;7.85;;
12218;SDS011;6172;42.646;23.344;2022-07-23T05:05:19;8.07;;;7.15;;
12218;SDS011;6172;42.646;23.344;2022-07-23T05:07:46;11.40;;;7.03;;
12218;SDS011;6172;42.646;23.344;2022-07-23T05:10:13;8.95;;;7.80;;
12218;SDS011;6172;42.646;23.344;2022-07-23T05:12:40;9.18;;;7.55;;
12218;SDS011;6172;42.646;23.344;2022-07-23T05:15:07;11.13;;;7.85;;
12218;SDS011;6172;42.646;23.344;2022-07-23T05:17:34;11.90;;;7.68;;
12218;SDS011;6172;42.646;23.344;2022-07-23T05:20:01;8.63;;;7.70;;
12218;SDS011;6172;42.646;23.344;2022-07-23T05:22:30;9.07;;;7.72;;
12218;SDS011;6172;42.646;23.344;2022-07-23T05:24:57;9.52;;;7.35;;
12218;SDS011;6172;42.646;23.344;2022-07-23T05:27:24;10.98;;;7.60;;
12218;SDS011;6172;42.646;23.344;2022-07-23T05:29:51;9.65;;;7.43;;
12218;SDS011;6172;42.646;23.344;2022-07-23T05:32:17;10.45;;;8.00;;
12218;SDS011;6172;42.646;23.344;2022-07-23T05:34:44;10.80;;;7.68;;
12218;SDS011;6172;42.646;23.344;2022-07-23T05:37:11;10.10;;;7.88;;
12218;SDS011;6172;42.646;23.344;2022-07-23T05:39:39;10.40;;;7.22;;
12218;SDS011;6172;42.646;23.344;2022-07-23T05:42:06;11.27;;;7.68;;
12218;SDS011;6172;42.646;23.344;2022-07-23T05:44:33;16.67;;;8.18;;
12218;SDS011;6172;42.646;23.344;2022-07-23T05:47:00;9.00;;;7.43;;
12218;SDS011;6172;42.646;23.344;2022-07-23T05:49:27;9.77;;;7.65;;
12218;SDS011;6172;42.646;23.344;2022-07-23T05:51:54;9.25;;;7.78;;
12218;SDS011;6172;42.646;23.344;2022-07-23T05:54:21;9.30;;;7.13;;
12218;SDS011;6172;42.646;23.344;2022-07-23T05:56:49;11.48;;;7.35;;
12218;SDS011;6172;42.646;23.344;2022-07-23T05:59:17;10.52;;;6.80;;
12218;SDS011;6172;42.646;23.344;2022-07-23T06:01:44;14.85;;;7.88;;
12218;SDS011;6172;42.646;23.344;2022-07-23T06:04:11;11.23;;;6.80;;
12218;SDS011;6172;42.646;23.344;2022-07-23T06:06:38;12.70;;;7.80;;
12218;SDS011;6172;42.646;23.344;2022-07-23T06:09:05;9.50;;;7.43;;
12218;SDS011;6172;42.646;23.344;2022-07-23T06:11:32;9.93;;;6.68;;
12218;SDS011;6172;42.646;23.344;2022-07-23T06:14:00;12.73;;;7.72;;
12218;SDS011;6172;42.646;23.344;2022-07-23T06:16:28;16.63;;;7.07;;
12218;SDS011;6172;42.646;23.344;2022-07-23T06:18:54;13.00;;;7.10;;
12218;SDS011;6172;42.646;23.344;2022-07-23T06:21:21;12.00;;;6.68;;
12218;SDS011;6172;42.646;23.344;2022-07-23T06:23:48;9.48;;;6.05;;
12218;SDS011;6172;42.646;23.344;2022-07-23T06:26:15;8.95;;;6.57;;
12218;SDS011;6172;42.646;23.344;2022-07-23T06:28:42;10.43;;;6.50;;
12218;SDS011;6172;42.646;23.344;2022-07-23T06:31:11;9.43;;;5.95;;
12218;SDS011;6172;42.646;23.344;2022-07-23T06:33:37;10.43;;;6.68;;
12218;SDS011;6172;42.646;23.344;2022-07-23T06:36:04;9.50;;;6.50;;
12218;SDS011;6172;42.646;23.344;2022-07-23T06:38:32;8.93;;;5.30;;
12218;SDS011;6172;42.646;23.344;2022-07-23T06:40:58;8.70;;;5.68;;
12218;SDS011;6172;42.646;23.344;2022-07-23T06:43:25;8.38;;;6.18;;
12218;SDS011;6172;42.646;23.344;2022-07-23T06:45:52;10.13;;;5.90;;
12218;SDS011;6172;42.646;23.344;2022-07-23T06:48:20;8.35;;;6.03;;
12218;SDS011;6172;42.646;23.344;2022-07-23T06:50:48;8.43;;;5.88;;
12218;SDS011;6172;42.646;23.344;2022-07-23T06:53:14;7.97;;;5.55;;
12218;SDS011;6172;42.646;23.344;2022-07-23T06:55:41;11.13;;;6.45;;
12218;SDS011;6172;42.646;23.344;2022-07-23T06:58:08;8.13;;;5.20;;
12218;SDS011;6172;42.646;23.344;2022-07-23T07:00:35;12.05;;;5.20;;
12218;SDS011;6172;42.646;23.344;2022-07-23T07:03:02;7.95;;;4.63;;
12218;SDS011;6172;42.646;23.344;2022-07-23T07:05:31;7.40;;;5.75;;
12218;SDS011;6172;42.646;23.344;2022-07-23T07:07:58;6.38;;;4.95;;
12218;SDS011;6172;42.646;23.344;2022-07-23T07:10:24;7.25;;;5.10;;
12218;SDS011;6172;42.646;23.344;2022-07-23T07:12:51;7.80;;;5.60;;
12218;SDS011;6172;42.646;23.344;2022-07-23T07:15:18;7.15;;;5.32;;
12218;SDS011;6172;42.646;23.344;2022-07-23T07:17:45;6.10;;;4.90;;
12218;SDS011;6172;42.646;23.344;2022-07-23T07:20:12;7.50;;;5.40;;
12218;SDS011;6172;42.646;23.344;2022-07-23T07:22:40;10.75;;;5.45;;
12218;SDS011;6172;42.646;23.344;2022-07-23T07:25:07;10.43;;;5.72;;
12218;SDS011;6172;42.646;23.344;2022-07-23T07:27:34;8.48;;;5.45;;
12218;SDS011;6172;42.646;23.344;2022-07-23T07:30:01;8.05;;;5.28;;
12218;SDS011;6172;42.646;23.344;2022-07-23T07:32:29;9.50;;;5.35;;
12218;SDS011;6172;42.646;23.344;2022-07-23T07:34:57;10.45;;;5.63;;
12218;SDS011;6172;42.646;23.344;2022-07-23T07:37:24;6.97;;;4.93;;
12218;SDS011;6172;42.646;23.344;2022-07-23T07:39:52;8.27;;;5.22;;
12218;SDS011;6172;42.646;23.344;2022-07-23T07:42:19;8.23;;;4.72;;
12218;SDS011;6172;42.646;23.344;2022-07-23T07:44:46;10.10;;;6.00;;
12218;SDS011;6172;42.646;23.344;2022-07-23T07:47:12;10.32;;;5.45;;
12218;SDS011;6172;42.646;23.344;2022-07-23T07:49:40;7.57;;;5.00;;
12218;SDS011;6172;42.646;23.344;2022-07-23T07:52:07;7.20;;;5.43;;
12218;SDS011;6172;42.646;23.344;2022-07-23T07:54:34;9.05;;;5.22;;
12218;SDS011;6172;42.646;23.344;2022-07-23T07:57:03;13.93;;;5.20;;
12218;SDS011;6172;42.646;23.344;2022-07-23T07:59:29;9.02;;;5.70;;
12218;SDS011;6172;42.646;23.344;2022-07-23T08:01:56;6.40;;;5.28;;
12218;SDS011;6172;42.646;23.344;2022-07-23T08:04:23;7.15;;;5.03;;
12218;SDS011;6172;42.646;23.344;2022-07-23T08:06:50;10.25;;;5.40;;
12218;SDS011;6172;42.646;23.344;2022-07-23T08:09:17;6.32;;;5.32;;
12218;SDS011;6172;42.646;23.344;2022-07-23T08:11:43;9.15;;;5.82;;
12218;SDS011;6172;42.646;23.344;2022-07-23T08:14:12;6.95;;;5.38;;
12218;SDS011;6172;42.646;23.344;2022-07-23T08:16:39;8.45;;;6.03;;
12218;SDS011;6172;42.646;23.344;2022-07-23T08:19:06;8.25;;;5.93;;
12218;SDS011;6172;42.646;23.344;2022-07-23T08:21:33;12.07;;;5.50;;
12218;SDS011;6172;42.646;23.344;2022-07-23T08:24:00;9.13;;;5.70;;
12218;SDS011;6172;42.646;23.344;2022-07-23T08:26:27;10.05;;;5.88;;
12218;SDS011;6172;42.646;23.344;2022-07-23T08:28:54;11.73;;;5.65;;
12218;SDS011;6172;42.646;23.344;2022-07-23T08:31:22;8.60;;;6.07;;
12218;SDS011;6172;42.646;23.344;2022-07-23T08:33:49;7.90;;;5.80;;
12218;SDS011;6172;42.646;23.344;2022-07-23T08:36:17;11.90;;;6.18;;
12218;SDS011;6172;42.646;23.344;2022-07-23T08:38:44;9.43;;;6.30;;
12218;SDS011;6172;42.646;23.344;2022-07-23T08:41:11;6.15;;;5.28;;
12218;SDS011;6172;42.646;23.344;2022-07-23T08:43:39;11.88;;;6.13;;
12218;SDS011;6172;42.646;23.344;2022-07-23T08:46:08;9.98;;;5.70;;
12218;SDS011;6172;42.646;23.344;2022-07-23T08:48:36;6.75;;;5.32;;
12218;SDS011;6172;42.646;23.344;2022-07-23T08:51:04;10.13;;;6.13;;
12218;SDS011;6172;42.646;23.344;2022-07-23T08:53:31;6.85;;;6.10;;
12218;SDS011;6172;42.646;23.344;2022-07-23T08:56:01;8.65;;;6.15;;
12218;SDS011;6172;42.646;23.344;2022-07-23T08:58:30;13.70;;;6.30;;
12218;SDS011;6172;42.646;23.344;2022-07-23T09:00:57;8.15;;;6.32;;
12218;SDS011;6172;42.646;23.344;2022-07-23T09:03:25;12.40;;;6.78;;
12218;SDS011;6172;42.646;23.344;2022-07-23T09:05:55;7.22;;;6.22;;
12218;SDS011;6172;42.646;23.344;2022-07-23T09:08:24;6.97;;;5.72;;
12218;SDS011;6172;42.646;23.344;2022-07-23T09:10:52;8.63;;;6.43;;
12218;SDS011;6172;42.646;23.344;2022-07-23T09:13:28;9.02;;;6.05;;
12218;SDS011;6172;42.646;23.344;2022-07-23T09:15:57;7.28;;;6.28;;
12218;SDS011;6172;42.646;23.344;2022-07-23T09:18:29;11.18;;;6.78;;
12218;SDS011;6172;42.646;23.344;2022-07-23T09:21:10;7.97;;;6.00;;
12218;SDS011;6172;42.646;23.344;2022-07-23T09:23:39;8.20;;;6.28;;
12218;SDS011;6172;42.646;23.344;2022-07-23T09:26:19;8.00;;;5.78;;
12218;SDS011;6172;42.646;23.344;2022-07-23T09:28:52;8.93;;;5.60;;
12218;SDS011;6172;42.646;23.344;2022-07-23T09:31:22;8.27;;;5.35;;
12218;SDS011;6172;42.646;23.344;2022-07-23T09:33:50;11.10;;;5.28;;
12218;SDS011;6172;42.646;23.344;2022-07-23T09:36:27;9.13;;;5.85;;
12218;SDS011;6172;42.646;23.344;2022-07-23T09:38:55;9.77;;;5.65;;
12218;SDS011;6172;42.646;23.344;2022-07-23T09:41:22;10.90;;;5.38;;
12218;SDS011;6172;42.646;23.344;2022-07-23T09:43:54;8.15;;;5.68;;
12218;SDS011;6172;42.646;23.344;2022-07-23T09:46:22;7.15;;;5.93;;
12218;SDS011;6172;42.646;23.344;2022-07-23T09:48:50;7.60;;;5.78;;
12218;SDS011;6172;42.646;23.344;2022-07-23T09:51:19;9.02;;;5.15;;
12218;SDS011;6172;42.646;23.344;2022-07-23T09:53:52;9.05;;;5.97;;
12218;SDS011;6172;42.646;23.344;2022-07-23T09:56:19;10.43;;;5.43;;
12218;SDS011;6172;42.646;23.344;2022-07-23T09:58:46;8.70;;;5.03;;
12218;SDS011;6172;42.646;23.344;2022-07-23T10:01:16;5.68;;;5.13;;
12218;SDS011;6172;42.646;23.344;2022-07-23T10:03:44;10.48;;;5.80;;
12218;SDS011;6172;42.646;23.344;2022-07-23T10:06:12;6.85;;;4.70;;
12218;SDS011;6172;42.646;23.344;2022-07-23T10:08:40;5.88;;;5.05;;
12218;SDS011;6172;42.646;23.344;2022-07-23T10:11:10;6.82;;;4.78;;
12218;SDS011;6172;42.646;23.344;2022-07-23T10:13:39;6.13;;;4.93;;
12218;SDS011;6172;42.646;23.344;2022-07-23T10:16:20;5.78;;;4.85;;
12218;SDS011;6172;42.646;23.344;2022-07-23T10:18:47;8.27;;;4.78;;
12218;SDS011;6172;42.646;23.344;2022-07-23T10:21:16;5.00;;;4.50;;
12218;SDS011;6172;42.646;23.344;2022-07-23T10:24:04;6.88;;;4.15;;
12218;SDS011;6172;42.646;23.344;2022-07-23T10:26:41;7.80;;;4.22;;
12218;SDS011;6172;42.646;23.344;2022-07-23T10:29:20;5.93;;;4.25;;
12218;SDS011;6172;42.646;23.344;2022-07-23T10:31:58;17.98;;;4.75;;
12218;SDS011;6172;42.646;23.344;2022-07-23T10:34:34;12.40;;;4.03;;
12218;SDS011;6172;42.646;23.344;2022-07-23T10:37:12;9.35;;;4.40;;
12218;SDS011;6172;42.646;23.344;2022-07-23T10:39:45;8.02;;;3.65;;
12218;SDS011;6172;42.646;23.344;2022-07-23T10:42:14;8.02;;;4.55;;
12218;SDS011;6172;42.646;23.344;2022-07-23T10:44:43;9.02;;;4.47;;
12218;SDS011;6172;42.646;23.344;2022-07-23T10:47:11;8.30;;;4.25;;
12218;SDS011;6172;42.646;23.344;2022-07-23T10:49:52;7.45;;;4.10;;
12218;SDS011;6172;42.646;23.344;2022-07-23T10:52:21;7.50;;;4.03;;
12218;SDS011;6172;42.646;23.344;2022-07-23T10:54:50;7.30;;;4.05;;
12218;SDS011;6172;42.646;23.344;2022-07-23T10:57:20;6.93;;;4.25;;
12218;SDS011;6172;42.646;23.344;2022-07-23T11:02:47;6.38;;;4.25;;
12218;SDS011;6172;42.646;23.344;2022-07-23T11:05:15;13.65;;;4.70;;
12218;SDS011;6172;42.646;23.344;2022-07-23T11:10:54;12.18;;;4.03;;
12218;SDS011;6172;42.646;23.344;2022-07-23T11:13:38;7.47;;;4.50;;
12218;SDS011;6172;42.646;23.344;2022-07-23T11:16:17;11.18;;;4.18;;
12218;SDS011;6172;42.646;23.344;2022-07-23T11:18:53;7.25;;;4.55;;
12218;SDS011;6172;42.646;23.344;2022-07-23T11:21:43;9.82;;;4.13;;
12218;SDS011;6172;42.646;23.344;2022-07-23T11:24:15;9.27;;;4.53;;
12218;SDS011;6172;42.646;23.344;2022-07-23T11:26:45;10.68;;;4.78;;
12218;SDS011;6172;42.646;23.344;2022-07-23T11:32:08;8.98;;;3.97;;
12218;SDS011;6172;42.646;23.344;2022-07-23T11:34:50;9.05;;;4.80;;
12218;SDS011;6172;42.646;23.344;2022-07-23T11:40:11;29.35;;;5.47;;
12218;SDS011;6172;42.646;23.344;2022-07-23T11:42:39;8.77;;;4.25;;
12218;SDS011;6172;42.646;23.344;2022-07-23T11:45:20;10.52;;;4.20;;
12218;SDS011;6172;42.646;23.344;2022-07-23T11:47:47;10.57;;;4.28;;
12218;SDS011;6172;42.646;23.344;2022-07-23T11:50:13;9.38;;;4.47;;
12218;SDS011;6172;42.646;23.344;2022-07-23T11:52:42;6.18;;;3.92;;
12218;SDS011;6172;42.646;23.344;2022-07-23T11:55:09;8.20;;;4.13;;
12218;SDS011;6172;42.646;23.344;2022-07-23T11:57:38;7.47;;;4.28;;
12218;SDS011;6172;42.646;23.344;2022-07-23T12:00:07;14.45;;;4.68;;
12218;SDS011;6172;42.646;23.344;2022-07-23T12:02:37;9.25;;;4.15;;
12218;SDS011;6172;42.646;23.344;2022-07-23T12:05:05;7.03;;;4.30;;
12218;SDS011;6172;42.646;23.344;2022-07-23T12:07:34;12.43;;;4.80;;
12218;SDS011;6172;42.646;23.344;2022-07-23T12:10:03;10.75;;;4.63;;
12218;SDS011;6172;42.646;23.344;2022-07-23T12:12:36;12.45;;;4.35;;
12218;SDS011;6172;42.646;23.344;2022-07-23T12:15:04;9.32;;;4.70;;
12218;SDS011;6172;42.646;23.344;2022-07-23T12:17:35;7.32;;;4.00;;
12218;SDS011;6172;42.646;23.344;2022-07-23T12:20:06;10.23;;;5.18;;
12218;SDS011;6172;42.646;23.344;2022-07-23T12:22:35;10.68;;;4.97;;
12218;SDS011;6172;42.646;23.344;2022-07-23T12:25:04;7.45;;;4.43;;
12218;SDS011;6172;42.646;23.344;2022-07-23T12:27:34;8.25;;;4.57;;
12218;SDS011;6172;42.646;23.344;2022-07-23T12:30:18;7.90;;;3.80;;
12218;SDS011;6172;42.646;23.344;2022-07-23T12:32:51;14.77;;;4.20;;
12218;SDS011;6172;42.646;23.344;2022-07-23T12:35:20;11.85;;;4.22;;
12218;SDS011;6172;42.646;23.344;2022-07-23T12:37:49;9.93;;;3.70;;
12218;SDS011;6172;42.646;23.344;2022-07-23T12:40:24;10.35;;;3.88;;
12218;SDS011;6172;42.646;23.344;2022-07-23T12:42:54;11.73;;;3.78;;
12218;SDS011;6172;42.646;23.344;2022-07-23T12:45:22;10.63;;;3.22;;
12218;SDS011;6172;42.646;23.344;2022-07-23T12:47:52;8.95;;;3.65;;
12218;SDS011;6172;42.646;23.344;2022-07-23T12:50:31;8.75;;;3.92;;
12218;SDS011;6172;42.646;23.344;2022-07-23T12:53:05;11.02;;;3.75;;
12218;SDS011;6172;42.646;23.344;2022-07-23T12:55:34;14.32;;;3.70;;
12218;SDS011;6172;42.646;23.344;2022-07-23T12:58:05;12.50;;;4.07;;
12218;SDS011;6172;42.646;23.344;2022-07-23T13:00:48;10.85;;;3.92;;
12218;SDS011;6172;42.646;23.344;2022-07-23T13:03:21;11.73;;;3.75;;
12218;SDS011;6172;42.646;23.344;2022-07-23T13:05:49;11.50;;;3.95;;
12218;SDS011;6172;42.646;23.344;2022-07-23T13:08:16;10.13;;;3.72;;
12218;SDS011;6172;42.646;23.344;2022-07-23T13:10:43;15.35;;;4.20;;
12218;SDS011;6172;42.646;23.344;2022-07-23T13:13:12;10.32;;;3.55;;
12218;SDS011;6172;42.646;23.344;2022-07-23T13:15:39;11.05;;;3.22;;
12218;SDS011;6172;42.646;23.344;2022-07-23T13:18:06;10.93;;;4.13;;
12218;SDS011;6172;42.646;23.344;2022-07-23T13:20:34;13.38;;;3.80;;
12218;SDS011;6172;42.646;23.344;2022-07-23T13:23:03;11.05;;;3.85;;
12218;SDS011;6172;42.646;23.344;2022-07-23T13:25:30;11.07;;;3.70;;
12218;SDS011;6172;42.646;23.344;2022-07-23T13:27:57;10.32;;;3.92;;
12218;SDS011;6172;42.646;23.344;2022-07-23T13:30:24;6.63;;;3.92;;
12218;SDS011;6172;42.646;23.344;2022-07-23T13:32:51;6.53;;;4.10;;
12218;SDS011;6172;42.646;23.344;2022-07-23T13:35:18;15.05;;;4.35;;
12218;SDS011;6172;42.646;23.344;2022-07-23T13:37:46;9.32;;;3.83;;
12218;SDS011;6172;42.646;23.344;2022-07-23T13:40:13;9.13;;;3.78;;
12218;SDS011;6172;42.646;23.344;2022-07-23T13:42:40;13.32;;;3.53;;
12218;SDS011;6172;42.646;23.344;2022-07-23T13:45:07;9.85;;;3.35;;
12218;SDS011;6172;42.646;23.344;2022-07-23T13:47:34;10.68;;;3.95;;
12218;SDS011;6172;42.646;23.344;2022-07-23T13:50:01;8.20;;;3.65;;
12218;SDS011;6172;42.646;23.344;2022-07-23T13:52:28;9.25;;;4.13;;
12218;SDS011;6172;42.646;23.344;2022-07-23T13:54:56;12.63;;;4.05;;
12218;SDS011;6172;42.646;23.344;2022-07-23T13:57:23;8.68;;;3.60;;
12218;SDS011;6172;42.646;23.344;2022-07-23T13:59:50;9.18;;;3.72;;
12218;SDS011;6172;42.646;23.344;2022-07-23T14:02:17;7.47;;;3.53;;
12218;SDS011;6172;42.646;23.344;2022-07-23T14:04:44;12.23;;;4.25;;
12218;SDS011;6172;42.646;23.344;2022-07-23T14:07:11;9.98;;;3.85;;
12218;SDS011;6172;42.646;23.344;2022-07-23T14:09:38;10.80;;;4.20;;
12218;SDS011;6172;42.646;23.344;2022-07-23T14:12:07;8.95;;;4.15;;
12218;SDS011;6172;42.646;23.344;2022-07-23T14:14:35;8.70;;;4.10;;
12218;SDS011;6172;42.646;23.344;2022-07-23T14:17:01;9.95;;;4.43;;
12218;SDS011;6172;42.646;23.344;2022-07-23T14:19:29;9.20;;;3.90;;
12218;SDS011;6172;42.646;23.344;2022-07-23T14:21:55;11.65;;;4.22;;
12218;SDS011;6172;42.646;23.344;2022-07-23T14:24:22;9.43;;;3.80;;
12218;SDS011;6172;42.646;23.344;2022-07-23T14:26:49;8.25;;;4.18;;
12218;SDS011;6172;42.646;23.344;2022-07-23T14:29:17;10.85;;;4.20;;
12218;SDS011;6172;42.646;23.344;2022-07-23T14:31:44;9.25;;;3.55;;
12218;SDS011;6172;42.646;23.344;2022-07-23T14:34:11;11.73;;;4.00;;
12218;SDS011;6172;42.646;23.344;2022-07-23T14:36:38;12.45;;;4.10;;
12218;SDS011;6172;42.646;23.344;2022-07-23T14:39:05;7.32;;;3.85;;
12218;SDS011;6172;42.646;23.344;2022-07-23T14:41:34;10.15;;;3.90;;
12218;SDS011;6172;42.646;23.344;2022-07-23T14:44:01;13.48;;;4.35;;
12218;SDS011;6172;42.646;23.344;2022-07-23T14:46:29;8.73;;;3.60;;
12218;SDS011;6172;42.646;23.344;2022-07-23T14:48:57;11.27;;;3.90;;
12218;SDS011;6172;42.646;23.344;2022-07-23T14:51:24;9.32;;;3.72;;
12218;SDS011;6172;42.646;23.344;2022-07-23T14:53:50;9.43;;;4.32;;
12218;SDS011;6172;42.646;23.344;2022-07-23T14:56:17;9.65;;;4.05;;
12218;SDS011;6172;42.646;23.344;2022-07-23T14:58:44;9.38;;;3.58;;
12218;SDS011;6172;42.646;23.344;2022-07-23T15:01:11;9.15;;;3.55;;